Effie, Mississippi
Current Conditions -  °F | °C
As of 11:35 AM on Saturday 25 Oct 2014 (Local Time) from KCKM Reporting Station
Clear Clear  
Wind Chill: 75°   Ceiling: Unl
Heat Index: 75°   Visibility: 10mi
Dew Point: 59°   Wind: 10mph
Humidity: 57%   Direction: 240°WSW
Pressure: 30.13"   Gusts: NA
Location:  33.9483°N, 90.1764°W
Report Text: KCKM 251635Z AUTO 24009KT 10SM CLR 24/15 A3013 RMK AO1
Loading
Personal Weather Stations






























Interactive Weather Map
Tropical Storm Tracking
New forecast layout! Learn more

10-Day Weather Forecast

Advertisements
Track Severe Weather on mobile